sensor_id;sensor_type;location;lat;lon;timestamp;pressure;altitude;pressure_sealevel;temperature;humidity
8637;BME280;4356;49.068;8.658;2023-04-06T00:00:56;100202.53;;;18.11;31.76
8637;BME280;4356;49.068;8.658;2023-04-06T00:03:22;100199.19;;;18.09;31.34
8637;BME280;4356;49.068;8.658;2023-04-06T00:05:48;100191.66;;;18.05;31.20
8637;BME280;4356;49.068;8.658;2023-04-06T00:08:14;100193.97;;;18.08;31.50
8637;BME280;4356;49.068;8.658;2023-04-06T00:10:40;100185.00;;;18.01;31.38
8637;BME280;4356;49.068;8.658;2023-04-06T00:13:07;100184.78;;;18.02;31.23
8637;BME280;4356;49.068;8.658;2023-04-06T00:15:33;100179.75;;;17.99;31.21
8637;BME280;4356;49.068;8.658;2023-04-06T00:17:59;100173.66;;;17.97;31.02
8637;BME280;4356;49.068;8.658;2023-04-06T00:20:25;100171.16;;;17.96;31.20
8637;BME280;4356;49.068;8.658;2023-04-06T00:22:50;100168.66;;;17.94;30.82
8637;BME280;4356;49.068;8.658;2023-04-06T00:25:16;100175.78;;;17.95;31.21
8637;BME280;4356;49.068;8.658;2023-04-06T00:27:42;100168.03;;;17.92;31.21
8637;BME280;4356;49.068;8.658;2023-04-06T00:30:08;100169.91;;;17.92;31.08
8637;BME280;4356;49.068;8.658;2023-04-06T00:32:35;100156.97;;;17.87;31.02
8637;BME280;4356;49.068;8.658;2023-04-06T00:35:05;100161.34;;;17.88;31.30
8637;BME280;4356;49.068;8.658;2023-04-06T00:37:31;100160.75;;;17.86;31.25
8637;BME280;4356;49.068;8.658;2023-04-06T00:39:56;100159.91;;;17.86;31.23
8637;BME280;4356;49.068;8.658;2023-04-06T00:42:22;100165.56;;;17.84;31.36
8637;BME280;4356;49.068;8.658;2023-04-06T00:44:56;100155.72;;;17.83;30.89
8637;BME280;4356;49.068;8.658;2023-04-06T00:47:22;100150.31;;;17.77;31.08
8637;BME280;4356;49.068;8.658;2023-04-06T00:49:48;100153.22;;;17.82;31.16
8637;BME280;4356;49.068;8.658;2023-04-06T00:52:14;100158.88;;;17.80;30.78
8637;BME280;4356;49.068;8.658;2023-04-06T00:54:40;100156.38;;;17.79;30.85
8637;BME280;4356;49.068;8.658;2023-04-06T00:57:06;100154.69;;;17.78;30.75
8637;BME280;4356;49.068;8.658;2023-04-06T00:59:32;100155.75;;;17.77;31.06
8637;BME280;4356;49.068;8.658;2023-04-06T01:01:57;100157.59;;;17.76;31.15
8637;BME280;4356;49.068;8.658;2023-04-06T01:04:23;100138.59;;;17.70;31.28
8637;BME280;4356;49.068;8.658;2023-04-06T01:06:50;100149.25;;;17.71;31.37
8637;BME280;4356;49.068;8.658;2023-04-06T01:09:16;100149.25;;;17.71;31.25
8637;BME280;4356;49.068;8.658;2023-04-06T01:11:42;100141.09;;;17.65;31.22
8637;BME280;4356;49.068;8.658;2023-04-06T01:14:09;100138.59;;;17.63;30.98
8637;BME280;4356;49.068;8.658;2023-04-06T01:16:35;100141.31;;;17.63;30.74
8637;BME280;4356;49.068;8.658;2023-04-06T01:19:01;100142.81;;;17.59;31.33
8637;BME280;4356;49.068;8.658;2023-04-06T01:21:27;100142.59;;;17.61;31.17
8637;BME280;4356;49.068;8.658;2023-04-06T01:23:52;100139.88;;;17.61;31.29
8637;BME280;4356;49.068;8.658;2023-04-06T01:26:18;100146.97;;;17.62;31.05
8637;BME280;4356;49.068;8.658;2023-04-06T01:28:51;100136.75;;;17.57;31.21
8637;BME280;4356;49.068;8.658;2023-04-06T01:31:16;100139.25;;;17.59;31.41
8637;BME280;4356;49.068;8.658;2023-04-06T01:33:42;100126.25;;;17.54;31.33
8637;BME280;4356;49.068;8.658;2023-04-06T01:36:07;100133.78;;;17.52;31.33
8637;BME280;4356;49.068;8.658;2023-04-06T01:38:33;100128.34;;;17.52;31.17
8637;BME280;4356;49.068;8.658;2023-04-06T01:40:59;100123.97;;;17.51;31.62
8637;BME280;4356;49.068;8.658;2023-04-06T01:43:24;100127.75;;;17.50;31.28
8637;BME280;4356;49.068;8.658;2023-04-06T01:45:50;100131.50;;;17.49;31.61
8637;BME280;4356;49.068;8.658;2023-04-06T01:48:16;100129.00;;;17.48;31.18
8637;BME280;4356;49.068;8.658;2023-04-06T01:50:42;100123.75;;;17.46;31.55
8637;BME280;4356;49.068;8.658;2023-04-06T01:53:07;100127.28;;;17.46;31.61
8637;BME280;4356;49.068;8.658;2023-04-06T01:55:33;100134.00;;;17.44;31.51
8637;BME280;4356;49.068;8.658;2023-04-06T01:57:59;100128.56;;;17.44;31.38
8637;BME280;4356;49.068;8.658;2023-04-06T02:00:24;100109.72;;;17.36;31.65
8637;BME280;4356;49.068;8.658;2023-04-06T02:02:50;100112.22;;;17.37;31.38
8637;BME280;4356;49.068;8.658;2023-04-06T02:05:16;100121.22;;;17.38;31.65
8637;BME280;4356;49.068;8.658;2023-04-06T02:07:42;100125.00;;;17.37;31.67
8637;BME280;4356;49.068;8.658;2023-04-06T02:10:12;100123.53;;;17.34;31.54
8637;BME280;4356;49.068;8.658;2023-04-06T02:12:38;100119.97;;;17.34;31.47
8637;BME280;4356;49.068;8.658;2023-04-06T02:15:04;100124.59;;;17.33;31.85
8637;BME280;4356;49.068;8.658;2023-04-06T02:17:30;100127.31;;;17.33;31.83
8637;BME280;4356;49.068;8.658;2023-04-06T02:19:56;100131.03;;;17.32;31.92
8637;BME280;4356;49.068;8.658;2023-04-06T02:22:21;100123.97;;;17.31;31.58
8637;BME280;4356;49.068;8.658;2023-04-06T02:24:47;100115.41;;;17.28;31.92
8637;BME280;4356;49.068;8.658;2023-04-06T02:27:14;100115.41;;;17.28;31.70
8637;BME280;4356;49.068;8.658;2023-04-06T02:29:40;100107.00;;;17.23;31.83
8637;BME280;4356;49.068;8.658;2023-04-06T02:32:05;100108.06;;;17.22;31.67
8637;BME280;4356;49.068;8.658;2023-04-06T02:34:31;100114.75;;;17.26;32.13
8637;BME280;4356;49.068;8.658;2023-04-06T02:36:57;100113.06;;;17.25;32.21
8637;BME280;4356;49.068;8.658;2023-04-06T02:39:22;100105.97;;;17.24;32.30
8637;BME280;4356;49.068;8.658;2023-04-06T02:41:48;100108.91;;;17.22;31.99
8637;BME280;4356;49.068;8.658;2023-04-06T02:44:14;100113.50;;;17.22;31.84
8637;BME280;4356;49.068;8.658;2023-04-06T02:46:39;100110.16;;;17.20;32.04
8637;BME280;4356;49.068;8.658;2023-04-06T02:49:05;100112.88;;;17.20;31.99
8637;BME280;4356;49.068;8.658;2023-04-06T02:51:31;100121.03;;;17.20;31.93
8637;BME280;4356;49.068;8.658;2023-04-06T02:53:56;100108.28;;;17.20;32.01
8637;BME280;4356;49.068;8.658;2023-04-06T02:56:22;100108.50;;;17.19;32.14
8637;BME280;4356;49.068;8.658;2023-04-06T02:58:48;100106.00;;;17.17;32.16
8637;BME280;4356;49.068;8.658;2023-04-06T03:01:13;100106.81;;;17.18;31.94
8637;BME280;4356;49.068;8.658;2023-04-06T03:03:40;100103.69;;;17.14;32.14
8637;BME280;4356;49.068;8.658;2023-04-06T03:06:05;100099.94;;;17.15;31.84
8637;BME280;4356;49.068;8.658;2023-04-06T03:08:31;100104.09;;;17.18;31.91
8637;BME280;4356;49.068;8.658;2023-04-06T03:10:57;100102.66;;;17.15;32.04
8637;BME280;4356;49.068;8.658;2023-04-06T03:13:22;100111.59;;;17.16;32.15
8637;BME280;4356;49.068;8.658;2023-04-06T03:15:48;100110.78;;;17.15;32.00
8637;BME280;4356;49.068;8.658;2023-04-06T03:18:14;100106.59;;;17.13;31.88
8637;BME280;4356;49.068;8.658;2023-04-06T03:20:39;100110.38;;;17.12;32.07
8637;BME280;4356;49.068;8.658;2023-04-06T03:23:06;100102.22;;;17.12;32.05
8637;BME280;4356;49.068;8.658;2023-04-06T03:25:32;100096.97;;;17.10;32.04
8637;BME280;4356;49.068;8.658;2023-04-06T03:27:57;100105.34;;;17.09;31.99
8637;BME280;4356;49.068;8.658;2023-04-06T03:30:23;100111.41;;;17.11;32.07
8637;BME280;4356;49.068;8.658;2023-04-06T03:32:48;100111.63;;;17.09;31.80
8637;BME280;4356;49.068;8.658;2023-04-06T03:35:14;100098.66;;;17.05;31.98
8637;BME280;4356;49.068;8.658;2023-04-06T03:37:40;100103.06;;;17.06;32.07
8637;BME280;4356;49.068;8.658;2023-04-06T03:40:06;100116.84;;;17.11;31.83
8637;BME280;4356;49.068;8.658;2023-04-06T03:42:32;100121.00;;;17.07;31.89
8637;BME280;4356;49.068;8.658;2023-04-06T03:44:58;100115.56;;;17.07;31.69
8637;BME280;4356;49.068;8.658;2023-04-06T03:47:24;100105.97;;;17.04;31.92
8637;BME280;4356;49.068;8.658;2023-04-06T03:49:50;100108.06;;;17.02;31.81
8637;BME280;4356;49.068;8.658;2023-04-06T03:52:15;100106.19;;;17.03;31.58
8637;BME280;4356;49.068;8.658;2023-04-06T03:54:41;100113.06;;;17.05;31.70
8637;BME280;4356;49.068;8.658;2023-04-06T03:57:07;100108.50;;;16.99;31.91
8637;BME280;4356;49.068;8.658;2023-04-06T03:59:32;100117.66;;;17.05;31.64
8637;BME280;4356;49.068;8.658;2023-04-06T04:01:58;100123.28;;;17.03;31.79
8637;BME280;4356;49.068;8.658;2023-04-06T04:04:24;100116.22;;;17.02;31.62
8637;BME280;4356;49.068;8.658;2023-04-06T04:06:50;100121.00;;;17.00;31.48
8637;BME280;4356;49.068;8.658;2023-04-06T04:09:15;100115.56;;;17.00;31.45
8637;BME280;4356;49.068;8.658;2023-04-06T04:11:41;100114.31;;;16.96;31.60
8637;BME280;4356;49.068;8.658;2023-04-06T04:14:07;100112.00;;;17.00;31.64
8637;BME280;4356;49.068;8.658;2023-04-06T04:16:32;100116.19;;;16.96;31.78
8637;BME280;4356;49.068;8.658;2023-04-06T04:18:58;100123.31;;;16.97;31.51
8637;BME280;4356;49.068;8.658;2023-04-06T04:21:24;100124.31;;;16.96;31.36
8637;BME280;4356;49.068;8.658;2023-04-06T04:23:51;100126.00;;;16.97;31.45
8637;BME280;4356;49.068;8.658;2023-04-06T04:26:18;100131.66;;;16.95;31.45
8637;BME280;4356;49.068;8.658;2023-04-06T04:28:44;100129.16;;;16.94;31.47
8637;BME280;4356;49.068;8.658;2023-04-06T04:31:09;100146.03;;;16.96;31.49
8637;BME280;4356;49.068;8.658;2023-04-06T04:33:35;100136.66;;;16.92;31.40
8637;BME280;4356;49.068;8.658;2023-04-06T04:36:01;100128.91;;;16.89;31.41
8637;BME280;4356;49.068;8.658;2023-04-06T04:38:26;100128.91;;;16.89;31.35
8637;BME280;4356;49.068;8.658;2023-04-06T04:40:52;100131.84;;;16.87;31.58
8637;BME280;4356;49.068;8.658;2023-04-06T04:43:18;100137.47;;;16.86;31.43
8637;BME280;4356;49.068;8.658;2023-04-06T04:45:43;100133.91;;;16.85;31.37
8637;BME280;4356;49.068;8.658;2023-04-06T04:48:09;100133.50;;;16.82;31.13
8637;BME280;4356;49.068;8.658;2023-04-06T04:50:35;100134.34;;;16.82;31.45
8637;BME280;4356;49.068;8.658;2023-04-06T04:53:01;100143.31;;;16.83;31.44
8637;BME280;4356;49.068;8.658;2023-04-06T04:55:27;100144.13;;;16.83;31.53
8637;BME280;4356;49.068;8.658;2023-04-06T04:57:54;100146.69;;;16.85;31.50
8637;BME280;4356;49.068;8.658;2023-04-06T05:00:20;100142.47;;;16.82;31.32
8637;BME280;4356;49.068;8.658;2023-04-06T05:02:46;100145.41;;;16.81;31.50
8637;BME280;4356;49.068;8.658;2023-04-06T05:05:12;100149.38;;;16.85;31.41
8637;BME280;4356;49.068;8.658;2023-04-06T05:07:37;100159.41;;;16.84;31.52
8637;BME280;4356;49.068;8.658;2023-04-06T05:10:03;100160.66;;;16.88;31.47
8637;BME280;4356;49.068;8.658;2023-04-06T05:12:29;100159.41;;;16.91;31.47
8637;BME280;4356;49.068;8.658;2023-04-06T05:14:54;100149.81;;;16.88;31.41
8637;BME280;4356;49.068;8.658;2023-04-06T05:17:20;100165.25;;;16.88;31.58
8637;BME280;4356;49.068;8.658;2023-04-06T05:19:46;100169.25;;;16.92;31.48
8637;BME280;4356;49.068;8.658;2023-04-06T05:22:11;100170.06;;;16.92;31.46
8637;BME280;4356;49.068;8.658;2023-04-06T05:24:39;100161.09;;;16.92;31.58
8637;BME280;4356;49.068;8.658;2023-04-06T05:27:05;100161.91;;;16.92;31.39
8637;BME280;4356;49.068;8.658;2023-04-06T05:29:34;100161.72;;;16.94;31.52
8637;BME280;4356;49.068;8.658;2023-04-06T05:31:59;100168.41;;;16.98;31.37
8637;BME280;4356;49.068;8.658;2023-04-06T05:34:25;100169.25;;;16.98;31.41
8637;BME280;4356;49.068;8.658;2023-04-06T05:36:51;100166.09;;;16.95;31.60
8637;BME280;4356;49.068;8.658;2023-04-06T05:39:18;100177.19;;;17.00;31.41
8637;BME280;4356;49.068;8.658;2023-04-06T05:41:43;100181.16;;;17.04;31.44
8637;BME280;4356;49.068;8.658;2023-04-06T05:44:09;100180.09;;;17.05;31.55
8637;BME280;4356;49.068;8.658;2023-04-06T05:46:35;100178.22;;;17.05;31.53
8637;BME280;4356;49.068;8.658;2023-04-06T05:49:01;100182.81;;;17.05;31.34
8637;BME280;4356;49.068;8.658;2023-04-06T05:51:26;100177.84;;;17.08;31.42
8637;BME280;4356;49.068;8.658;2023-04-06T05:53:52;100188.50;;;17.10;31.81
8637;BME280;4356;49.068;8.658;2023-04-06T05:56:18;100179.06;;;17.06;31.59
8637;BME280;4356;49.068;8.658;2023-04-06T05:58:44;100196.22;;;17.13;31.76
8637;BME280;4356;49.068;8.658;2023-04-06T06:01:09;100184.72;;;17.11;31.64
8637;BME280;4356;49.068;8.658;2023-04-06T06:03:35;100197.47;;;17.17;32.00
8637;BME280;4356;49.068;8.658;2023-04-06T06:06:04;100189.97;;;17.19;31.66
8637;BME280;4356;49.068;8.658;2023-04-06T06:08:30;100199.78;;;17.20;31.96
8637;BME280;4356;49.068;8.658;2023-04-06T06:10:56;100196.03;;;17.21;32.16
8637;BME280;4356;49.068;8.658;2023-04-06T06:13:23;100195.81;;;17.22;31.88
8637;BME280;4356;49.068;8.658;2023-04-06T06:15:49;100196.63;;;17.23;32.02
8637;BME280;4356;49.068;8.658;2023-04-06T06:18:16;100186.00;;;17.21;32.00
8637;BME280;4356;49.068;8.658;2023-04-06T06:20:41;100192.25;;;17.22;32.31
8637;BME280;4356;49.068;8.658;2023-04-06T06:23:07;100182.03;;;17.24;32.17
8637;BME280;4356;49.068;8.658;2023-04-06T06:25:33;100202.09;;;17.29;32.44
8637;BME280;4356;49.068;8.658;2023-04-06T06:27:59;100198.53;;;17.29;32.22
8637;BME280;4356;49.068;8.658;2023-04-06T06:30:25;100192.09;;;17.30;32.53
8637;BME280;4356;49.068;8.658;2023-04-06T06:32:51;100195.41;;;17.32;32.33
8637;BME280;4356;49.068;8.658;2023-04-06T06:35:19;100191.88;;;17.31;32.49
8637;BME280;4356;49.068;8.658;2023-04-06T06:37:45;100187.06;;;17.33;32.44
8637;BME280;4356;49.068;8.658;2023-04-06T06:40:11;100183.09;;;17.29;32.49
8637;BME280;4356;49.068;8.658;2023-04-06T06:42:38;100188.50;;;17.36;32.59
8637;BME280;4356;49.068;8.658;2023-04-06T06:45:06;100187.06;;;17.40;32.88
8637;BME280;4356;49.068;8.658;2023-04-06T06:47:32;100192.06;;;17.43;32.85
8637;BME280;4356;49.068;8.658;2023-04-06T06:49:58;100188.75;;;17.41;33.12
8637;BME280;4356;49.068;8.658;2023-04-06T06:52:23;100192.69;;;17.45;33.09
8637;BME280;4356;49.068;8.658;2023-04-06T06:54:49;100195.41;;;17.45;33.02
8637;BME280;4356;49.068;8.658;2023-04-06T06:57:15;100197.56;;;17.50;33.24
8637;BME280;4356;49.068;8.658;2023-04-06T06:59:44;100199.00;;;17.52;33.24
8637;BME280;4356;49.068;8.658;2023-04-06T07:02:09;100192.75;;;17.52;33.24
8637;BME280;4356;49.068;8.658;2023-04-06T07:04:35;100182.91;;;17.51;33.58
8637;BME280;4356;49.068;8.658;2023-04-06T07:07:00;100182.50;;;17.54;33.25
8637;BME280;4356;49.068;8.658;2023-04-06T07:09:26;100186.28;;;17.59;32.99
8637;BME280;4356;49.068;8.658;2023-04-06T07:11:53;100184.16;;;17.61;33.60
8637;BME280;4356;49.068;8.658;2023-04-06T07:14:18;100188.13;;;17.65;33.42
8637;BME280;4356;49.068;8.658;2023-04-06T07:16:44;100184.56;;;17.65;33.16
8637;BME280;4356;49.068;8.658;2023-04-06T07:19:10;100183.97;;;17.69;33.53
8637;BME280;4356;49.068;8.658;2023-04-06T07:21:36;100184.59;;;17.71;33.58
8637;BME280;4356;49.068;8.658;2023-04-06T07:24:02;100187.94;;;17.73;33.56
8637;BME280;4356;49.068;8.658;2023-04-06T07:26:29;100178.94;;;17.73;33.91
8637;BME280;4356;49.068;8.658;2023-04-06T07:28:57;100180.19;;;17.77;34.03
8637;BME280;4356;49.068;8.658;2023-04-06T07:31:23;100185.22;;;17.80;34.08
8637;BME280;4356;49.068;8.658;2023-04-06T07:33:49;100176.22;;;17.79;33.75
8637;BME280;4356;49.068;8.658;2023-04-06T07:36:15;100181.03;;;17.84;33.71
8637;BME280;4356;49.068;8.658;2023-04-06T07:38:40;100177.06;;;17.86;34.27
8637;BME280;4356;49.068;8.658;2023-04-06T07:41:06;100178.50;;;17.89;34.06
8637;BME280;4356;49.068;8.658;2023-04-06T07:43:32;100183.31;;;17.93;34.22
8637;BME280;4356;49.068;8.658;2023-04-06T07:45:57;100173.25;;;17.94;34.29
8637;BME280;4356;49.068;8.658;2023-04-06T07:48:24;100178.09;;;17.98;34.38
8637;BME280;4356;49.068;8.658;2023-04-06T07:50:51;100177.03;;;17.99;34.45
8637;BME280;4356;49.068;8.658;2023-04-06T07:53:17;100174.13;;;18.01;34.36
8637;BME280;4356;49.068;8.658;2023-04-06T07:55:43;100183.91;;;18.08;34.52
8637;BME280;4356;49.068;8.658;2023-04-06T07:58:09;100183.50;;;18.11;34.15
8637;BME280;4356;49.068;8.658;2023-04-06T08:00:34;100179.09;;;18.10;33.48
8637;BME280;4356;49.068;8.658;2023-04-06T08:03:00;100181.81;;;18.17;34.58
8637;BME280;4356;49.068;8.658;2023-04-06T08:05:26;100182.00;;;18.22;34.59
8637;BME280;4356;49.068;8.658;2023-04-06T08:07:51;100160.25;;;18.15;34.36
8637;BME280;4356;49.068;8.658;2023-04-06T08:10:17;100176.75;;;18.27;34.66
8637;BME280;4356;49.068;8.658;2023-04-06T08:12:43;100171.94;;;18.29;34.35
8637;BME280;4356;49.068;8.658;2023-04-06T08:15:09;100159.19;;;18.23;34.63
8637;BME280;4356;49.068;8.658;2023-04-06T08:17:35;100160.84;;;18.30;34.31
8637;BME280;4356;49.068;8.658;2023-04-06T08:20:01;100166.69;;;18.40;34.17
8637;BME280;4356;49.068;8.658;2023-04-06T08:22:28;100173.59;;;18.43;34.33
8637;BME280;4356;49.068;8.658;2023-04-06T08:24:54;100144.06;;;18.33;34.51
8637;BME280;4356;49.068;8.658;2023-04-06T08:27:20;100165.84;;;18.46;34.57
8637;BME280;4356;49.068;8.658;2023-04-06T08:29:46;100166.63;;;18.54;34.42
8637;BME280;4356;49.068;8.658;2023-04-06T08:32:11;100168.31;;;18.55;34.21
8637;BME280;4356;49.068;8.658;2023-04-06T08:34:37;100169.56;;;18.59;34.05
8637;BME280;4356;49.068;8.658;2023-04-06T08:37:02;100161.19;;;18.60;33.85
8637;BME280;4356;49.068;8.658;2023-04-06T08:39:28;100161.13;;;18.67;32.23
8637;BME280;4356;49.068;8.658;2023-04-06T08:41:56;100161.72;;;18.75;32.71
8637;BME280;4356;49.068;8.658;2023-04-06T08:44:26;100165.91;;;18.78;32.89
8637;BME280;4356;49.068;8.658;2023-04-06T08:46:52;100167.16;;;18.82;32.57
8637;BME280;4356;49.068;8.658;2023-04-06T08:49:18;100145.59;;;18.74;32.13
8637;BME280;4356;49.068;8.658;2023-04-06T08:51:44;100165.84;;;18.91;31.78
8637;BME280;4356;49.068;8.658;2023-04-06T08:54:10;100161.66;;;18.88;31.57
8637;BME280;4356;49.068;8.658;2023-04-06T08:56:38;100171.47;;;18.96;30.58
8637;BME280;4356;49.068;8.658;2023-04-06T08:59:06;100169.75;;;19.01;30.76
8637;BME280;4356;49.068;8.658;2023-04-06T09:01:33;100167.66;;;19.03;30.71
8637;BME280;4356;49.068;8.658;2023-04-06T09:04:01;100162.59;;;19.07;30.50
8637;BME280;4356;49.068;8.658;2023-04-06T09:06:30;100149.03;;;19.00;30.08
8637;BME280;4356;49.068;8.658;2023-04-06T09:08:56;100159.00;;;19.13;30.16
8637;BME280;4356;49.068;8.658;2023-04-06T09:11:23;100163.56;;;19.19;30.25
8637;BME280;4356;49.068;8.658;2023-04-06T09:13:50;100151.84;;;19.18;29.91
8637;BME280;4356;49.068;8.658;2023-04-06T09:16:17;100156.63;;;19.23;29.58
8637;BME280;4356;49.068;8.658;2023-04-06T09:18:43;100153.25;;;19.27;29.57
8637;BME280;4356;49.068;8.658;2023-04-06T09:21:10;100154.88;;;19.35;29.21
8637;BME280;4356;49.068;8.658;2023-04-06T09:23:37;100148.59;;;19.34;29.23
8637;BME280;4356;49.068;8.658;2023-04-06T09:26:17;100152.56;;;19.38;28.66
8637;BME280;4356;49.068;8.658;2023-04-06T09:28:44;100154.59;;;19.43;28.98
8637;BME280;4356;49.068;8.658;2023-04-06T09:31:14;100146.59;;;19.48;29.18
8637;BME280;4356;49.068;8.658;2023-04-06T09:33:42;100151.81;;;19.49;29.19
8637;BME280;4356;49.068;8.658;2023-04-06T09:36:08;100149.66;;;19.58;28.91
8637;BME280;4356;49.068;8.658;2023-04-06T09:38:38;100142.09;;;19.60;29.15
8637;BME280;4356;49.068;8.658;2023-04-06T09:41:04;100139.78;;;19.64;28.33
8637;BME280;4356;49.068;8.658;2023-04-06T09:43:30;100147.03;;;19.70;28.42
8637;BME280;4356;49.068;8.658;2023-04-06T09:45:56;100139.69;;;19.70;28.15
8637;BME280;4356;49.068;8.658;2023-04-06T09:48:27;100138.81;;;19.76;28.39
8637;BME280;4356;49.068;8.658;2023-04-06T09:50:59;100143.34;;;19.82;28.50
8637;BME280;4356;49.068;8.658;2023-04-06T09:53:30;100138.50;;;19.84;28.03
8637;BME280;4356;49.068;8.658;2023-04-06T09:55:57;100132.81;;;19.86;28.17
8637;BME280;4356;49.068;8.658;2023-04-06T09:58:34;100135.03;;;19.95;28.15
8637;BME280;4356;49.068;8.658;2023-04-06T10:01:13;100122.84;;;19.98;28.19
8637;BME280;4356;49.068;8.658;2023-04-06T10:03:52;100133.44;;;20.06;28.28
8637;BME280;4356;49.068;8.658;2023-04-06T10:06:23;100132.63;;;20.05;27.86
8637;BME280;4356;49.068;8.658;2023-04-06T10:08:51;100134.81;;;20.15;28.10
8637;BME280;4356;49.068;8.658;2023-04-06T10:11:20;100129.59;;;20.13;27.32
8637;BME280;4356;49.068;8.658;2023-04-06T10:13:47;100131.59;;;20.24;27.54
8637;BME280;4356;49.068;8.658;2023-04-06T10:16:14;100125.66;;;20.27;27.19
8637;BME280;4356;49.068;8.658;2023-04-06T10:18:45;100124.16;;;20.31;27.21
8637;BME280;4356;49.068;8.658;2023-04-06T10:21:19;100127.63;;;20.38;27.31
8637;BME280;4356;49.068;8.658;2023-04-06T10:23:51;100117.47;;;20.45;27.11
8637;BME280;4356;49.068;8.658;2023-04-06T10:26:20;100111.81;;;20.47;27.33
8637;BME280;4356;49.068;8.658;2023-04-06T10:28:48;100121.78;;;20.53;27.86
8637;BME280;4356;49.068;8.658;2023-04-06T10:31:14;100112.91;;;20.58;27.32
8637;BME280;4356;49.068;8.658;2023-04-06T10:33:40;100118.88;;;20.66;27.43
8637;BME280;4356;49.068;8.658;2023-04-06T10:36:13;100115.47;;;20.71;27.35
8637;BME280;4356;49.068;8.658;2023-04-06T10:38:41;100111.19;;;20.75;27.05
8637;BME280;4356;49.068;8.658;2023-04-06T10:41:11;100114.09;;;20.80;27.27
8637;BME280;4356;49.068;8.658;2023-04-06T10:43:39;100096.50;;;20.76;26.83
8637;BME280;4356;49.068;8.658;2023-04-06T10:46:06;100109.50;;;20.92;27.57
8637;BME280;4356;49.068;8.658;2023-04-06T10:48:43;100109.63;;;20.97;25.66
8637;BME280;4356;49.068;8.658;2023-04-06T10:51:15;100105.38;;;21.01;26.59
8637;BME280;4356;49.068;8.658;2023-04-06T10:53:45;100104.69;;;21.05;26.46
8637;BME280;4356;49.068;8.658;2023-04-06T10:56:16;100100.19;;;21.11;26.90
8637;BME280;4356;49.068;8.658;2023-04-06T10:58:50;100094.25;;;21.14;26.84
8637;BME280;4356;49.068;8.658;2023-04-06T11:01:18;100092.69;;;21.18;27.50
8637;BME280;4356;49.068;8.658;2023-04-06T11:03:51;100095.81;;;21.21;26.88
8637;BME280;4356;49.068;8.658;2023-04-06T11:06:21;100101.53;;;21.31;26.77
8637;BME280;4356;49.068;8.658;2023-04-06T11:08:48;100073.25;;;21.26;27.07
8637;BME280;4356;49.068;8.658;2023-04-06T11:11:16;100090.13;;;21.34;27.14
8637;BME280;4356;49.068;8.658;2023-04-06T11:13:45;100094.16;;;21.43;26.45
8637;BME280;4356;49.068;8.658;2023-04-06T11:16:19;100084.06;;;21.44;27.28
8637;BME280;4356;49.068;8.658;2023-04-06T11:18:53;100090.25;;;21.51;26.56
8637;BME280;4356;49.068;8.658;2023-04-06T11:21:30;100081.00;;;21.52;26.85
8637;BME280;4356;49.068;8.658;2023-04-06T11:24:18;100080.63;;;21.60;25.73
8637;BME280;4356;49.068;8.658;2023-04-06T11:26:46;100079.31;;;21.63;26.58
8637;BME280;4356;49.068;8.658;2023-04-06T11:29:16;100081.34;;;21.67;26.17
8637;BME280;4356;49.068;8.658;2023-04-06T11:31:45;100080.63;;;21.72;26.34
8637;BME280;4356;49.068;8.658;2023-04-06T11:34:25;100077.66;;;21.73;26.36
8637;BME280;4356;49.068;8.658;2023-04-06T11:36:59;100073.16;;;21.79;25.93
8637;BME280;4356;49.068;8.658;2023-04-06T11:39:26;100069.13;;;21.81;25.83
8637;BME280;4356;49.068;8.658;2023-04-06T11:41:59;100065.66;;;21.86;25.53
8637;BME280;4356;49.068;8.658;2023-04-06T11:44:37;100067.44;;;21.92;25.24
8637;BME280;4356;49.068;8.658;2023-04-06T11:47:09;100057.56;;;21.91;25.25
8637;BME280;4356;49.068;8.658;2023-04-06T11:49:40;100060.44;;;21.96;24.99
8637;BME280;4356;49.068;8.658;2023-04-06T11:52:19;100053.13;;;22.01;24.86
8637;BME280;4356;49.068;8.658;2023-04-06T11:54:47;100053.50;;;22.05;25.40
8637;BME280;4356;49.068;8.658;2023-04-06T11:57:13;100043.63;;;22.04;25.51
8637;BME280;4356;49.068;8.658;2023-04-06T11:59:39;100053.38;;;22.11;25.62
8637;BME280;4356;49.068;8.658;2023-04-06T12:02:05;100045.75;;;22.13;25.17
8637;BME280;4356;49.068;8.658;2023-04-06T12:04:31;100031.56;;;22.16;25.01
8637;BME280;4356;49.068;8.658;2023-04-06T12:06:57;100050.22;;;22.19;25.32
8637;BME280;4356;49.068;8.658;2023-04-06T12:09:23;100034.66;;;22.20;25.36
8637;BME280;4356;49.068;8.658;2023-04-06T12:11:49;100040.22;;;22.25;25.08
8637;BME280;4356;49.068;8.658;2023-04-06T12:14:15;100043.88;;;22.30;25.25
8637;BME280;4356;49.068;8.658;2023-04-06T12:16:41;100032.00;;;22.25;25.34
8637;BME280;4356;49.068;8.658;2023-04-06T12:19:07;100049.50;;;22.35;25.84
8637;BME280;4356;49.068;8.658;2023-04-06T12:21:34;100033.88;;;22.36;25.66
8637;BME280;4356;49.068;8.658;2023-04-06T12:24:02;100025.91;;;22.34;25.41
8637;BME280;4356;49.068;8.658;2023-04-06T12:26:29;100038.72;;;22.45;25.79
8637;BME280;4356;49.068;8.658;2023-04-06T12:28:54;100034.09;;;22.46;25.76
8637;BME280;4356;49.068;8.658;2023-04-06T12:31:21;100035.25;;;22.50;25.52
8637;BME280;4356;49.068;8.658;2023-04-06T12:33:51;100033.59;;;22.49;25.94
8637;BME280;4356;49.068;8.658;2023-04-06T12:36:18;100022.38;;;22.50;24.84
8637;BME280;4356;49.068;8.658;2023-04-06T12:38:45;100027.16;;;22.55;24.40
8637;BME280;4356;49.068;8.658;2023-04-06T12:41:11;100023.69;;;22.60;24.83
8637;BME280;4356;49.068;8.658;2023-04-06T12:43:38;100017.13;;;22.61;24.68
8637;BME280;4356;49.068;8.658;2023-04-06T12:46:05;100024.84;;;22.64;24.34
8637;BME280;4356;49.068;8.658;2023-04-06T12:48:31;100021.06;;;22.65;24.25
8637;BME280;4356;49.068;8.658;2023-04-06T12:50:59;100011.00;;;22.70;24.22
8637;BME280;4356;49.068;8.658;2023-04-06T12:53:25;100012.66;;;22.71;24.78
8637;BME280;4356;49.068;8.658;2023-04-06T12:55:51;100010.78;;;22.72;24.83
8637;BME280;4356;49.068;8.658;2023-04-06T12:58:17;100015.75;;;22.75;24.93
8637;BME280;4356;49.068;8.658;2023-04-06T13:00:48;100011.91;;;22.76;24.77
8637;BME280;4356;49.068;8.658;2023-04-06T13:03:14;99997.66;;;22.74;24.79
8637;BME280;4356;49.068;8.658;2023-04-06T13:05:44;100011.19;;;22.80;25.62
8637;BME280;4356;49.068;8.658;2023-04-06T13:08:10;99999.91;;;22.77;26.04